Time;durP1;ratioP1;P1;durP2;ratioP2;P2;SDS_P1;SDS_P2;PMS_P1;PMS_P2;Temp;Humidity;BMP_temperature;BMP_pressure;BME280_temperature;BME280_humidity;BME280_pressure;Samples;Min_cycle;Max_cycle;Signal;HPM_P1;HPM_P2
2023/11/27 00:00:05;;;;;;;11.25;6.30;;;;;;;5.56;68.23;100720.41;5087776;27;98602;-76
2023/11/27 00:02:31;;;;;;;10.43;5.97;;;;;;;5.67;67.50;100714.13;5090674;27;99082;-76
2023/11/27 00:04:58;;;;;;;9.57;6.05;;;;;;;5.92;66.66;100715.47;5076798;27;98584;-76
2023/11/27 00:07:24;;;;;;;12.30;6.55;;;;;;;5.82;66.10;100709.50;5083350;27;97880;-77
2023/11/27 00:09:50;;;;;;;10.70;5.90;;;;;;;5.89;66.16;100708.56;5082483;27;99391;-77
2023/11/27 00:12:18;;;;;;;12.07;6.85;;;;;;;5.60;67.43;100708.13;5090311;27;99219;-78
2023/11/27 00:14:44;;;;;;;10.82;6.63;;;;;;;5.67;67.31;100708.88;5091085;27;97096;-78
2023/11/27 00:17:10;;;;;;;8.90;5.57;;;;;;;5.82;67.37;100720.00;5081613;27;99019;-77
2023/11/27 00:19:37;;;;;;;10.18;6.00;;;;;;;5.72;68.41;100715.78;5089422;27;98963;-77
2023/11/27 00:22:03;;;;;;;13.13;6.63;;;;;;;5.57;68.28;100706.44;5082360;27;98261;-76
2023/11/27 00:24:30;;;;;;;11.27;6.25;;;;;;;5.74;67.95;100708.75;5090060;27;97403;-76
2023/11/27 00:26:56;;;;;;;12.57;6.82;;;;;;;5.69;67.66;100701.88;5092240;27;96830;-76
2023/11/27 00:29:24;;;;;;;14.13;7.15;;;;;;;5.97;66.57;100704.00;5084231;27;98919;-77
2023/11/27 00:31:50;;;;;;;11.48;7.00;;;;;;;6.05;65.48;100706.50;5090849;27;100003;-77
2023/11/27 00:34:16;;;;;;;12.90;6.40;;;;;;;5.99;66.49;100697.00;5082263;27;96873;-76
2023/11/27 00:36:43;;;;;;;11.35;6.32;;;;;;;5.85;66.27;100698.94;5094536;27;96850;-77
2023/11/27 00:39:09;;;;;;;12.45;6.43;;;;;;;5.79;66.32;100698.19;5078511;27;99458;-77
2023/11/27 00:41:36;;;;;;;12.75;6.82;;;;;;;5.91;66.74;100698.00;5076942;27;98128;-77
2023/11/27 00:44:02;;;;;;;10.98;6.70;;;;;;;5.87;66.15;100694.59;5086796;27;97900;-77
2023/11/27 00:46:30;;;;;;;12.90;7.05;;;;;;;5.85;66.35;100701.56;5079717;27;96796;-77
2023/11/27 00:48:56;;;;;;;16.58;6.78;;;;;;;5.80;66.39;100706.03;5077872;27;98859;-76
2023/11/27 00:51:23;;;;;;;12.35;7.13;;;;;;;6.00;66.43;100701.34;5086403;27;99207;-76
2023/11/27 00:53:49;;;;;;;13.30;6.38;;;;;;;5.86;66.54;100697.19;5083088;27;96949;-77
2023/11/27 00:56:16;;;;;;;11.77;7.07;;;;;;;6.07;65.72;100702.09;5086705;27;96930;-77
2023/11/27 00:58:42;;;;;;;14.10;6.85;;;;;;;5.89;66.30;100692.81;5086879;27;97714;-77
2023/11/27 01:01:09;;;;;;;13.75;7.20;;;;;;;5.99;66.40;100688.25;5084139;27;98816;-77
2023/11/27 01:03:36;;;;;;;16.95;8.35;;;;;;;6.08;65.60;100682.00;5091801;27;96754;-77
2023/11/27 01:06:04;;;;;;;15.07;7.30;;;;;;;6.14;65.35;100684.50;5082708;27;96891;-76
2023/11/27 01:08:30;;;;;;;14.30;7.70;;;;;;;5.92;66.12;100686.63;5091860;27;98955;-77
2023/11/27 01:10:56;;;;;;;11.75;7.72;;;;;;;6.26;65.51;100682.50;5092071;27;100480;-77
2023/11/27 01:13:23;;;;;;;13.18;7.22;;;;;;;6.07;65.46;100685.50;5092099;27;96739;-77
2023/11/27 01:15:49;;;;;;;13.18;7.65;;;;;;;6.08;65.68;100682.84;5085168;27;99212;-78
2023/11/27 01:18:16;;;;;;;11.57;7.32;;;;;;;6.03;66.10;100683.84;5077653;27;99165;-77
2023/11/27 01:20:45;;;;;;;19.40;8.63;;;;;;;6.13;65.84;100682.75;5081619;27;103524;-78
2023/11/27 01:23:12;;;;;;;15.93;8.10;;;;;;;6.02;65.79;100676.84;5085580;27;98065;-78
2023/11/27 01:25:38;;;;;;;13.32;7.60;;;;;;;6.29;65.53;100671.97;5079698;27;97035;-77
2023/11/27 01:28:04;;;;;;;16.08;8.00;;;;;;;6.21;65.33;100670.38;5083250;27;99505;-78
2023/11/27 01:30:31;;;;;;;13.40;7.95;;;;;;;6.11;65.14;100672.28;5091117;27;98722;-78
2023/11/27 01:32:57;;;;;;;14.30;7.63;;;;;;;6.03;65.45;100668.97;5081216;27;96826;-80
2023/11/27 01:35:23;;;;;;;14.18;7.53;;;;;;;5.98;65.94;100671.66;5088648;27;96868;-80
2023/11/27 01:37:51;;;;;;;12.02;6.78;;;;;;;6.00;65.57;100677.75;5087874;27;98058;-80
2023/11/27 01:40:18;;;;;;;12.55;6.82;;;;;;;5.74;66.59;100673.81;5082303;27;99806;-77
2023/11/27 01:42:44;;;;;;;15.48;6.88;;;;;;;5.91;66.30;100664.78;5082342;27;96646;-76
2023/11/27 01:45:11;;;;;;;12.98;6.15;;;;;;;6.04;66.25;100662.81;5080374;27;97196;-75
2023/11/27 01:47:37;;;;;;;9.68;5.72;;;;;;;6.19;65.05;100661.66;5091293;27;101053;-75
2023/11/27 01:50:05;;;;;;;11.93;5.97;;;;;;;6.03;65.33;100660.22;5085396;27;98887;-76
2023/11/27 01:52:33;;;;;;;10.80;5.57;;;;;;;6.02;65.72;100650.63;5086040;27;98368;-76
2023/11/27 01:55:01;;;;;;;10.23;5.65;;;;;;;5.98;65.81;100652.44;5089929;27;96796;-77
2023/11/27 01:57:28;;;;;;;9.70;5.85;;;;;;;6.18;65.68;100642.44;5084081;27;98997;-77
2023/11/27 01:59:56;;;;;;;9.35;5.43;;;;;;;6.28;64.89;100643.13;5081460;27;98797;-77
2023/11/27 02:02:23;;;;;;;12.95;5.63;;;;;;;6.15;65.07;100646.88;5087269;27;97670;-77
2023/11/27 02:04:49;;;;;;;11.02;5.60;;;;;;;6.29;64.65;100639.63;5089474;27;98629;-77
2023/11/27 02:07:16;;;;;;;13.80;5.43;;;;;;;6.12;65.38;100647.78;5082372;27;99041;-77
2023/11/27 02:09:42;;;;;;;10.90;5.35;;;;;;;5.95;65.76;100649.88;5081289;27;97515;-77
2023/11/27 02:12:10;;;;;;;10.85;5.40;;;;;;;5.88;66.02;100643.88;5084499;27;98801;-76
2023/11/27 02:14:36;;;;;;;10.18;5.68;;;;;;;6.03;65.72;100637.50;5084548;27;99642;-77
2023/11/27 02:17:04;;;;;;;11.95;6.47;;;;;;;6.24;65.25;100642.31;5082694;27;99334;-77
2023/11/27 02:19:30;;;;;;;8.50;5.63;;;;;;;6.16;65.76;100638.13;5081979;27;99482;-77
2023/11/27 02:21:56;;;;;;;10.63;5.63;;;;;;;6.14;65.36;100629.41;5089090;27;96678;-77
2023/11/27 02:24:24;;;;;;;11.32;6.70;;;;;;;5.97;66.20;100635.81;5085106;27;96822;-77
2023/11/27 02:26:50;;;;;;;12.40;7.60;;;;;;;6.11;66.21;100634.69;5087329;27;99294;-77
2023/11/27 02:29:17;;;;;;;15.13;9.20;;;;;;;6.09;65.93;100629.50;5081149;27;98838;-77
2023/11/27 02:31:43;;;;;;;17.27;10.88;;;;;;;6.17;65.45;100629.38;5077579;27;99038;-77
2023/11/27 02:34:10;;;;;;;20.10;12.77;;;;;;;6.10;65.80;100626.00;5081352;27;97476;-76
2023/11/27 02:36:38;;;;;;;26.77;15.88;;;;;;;6.01;65.96;100628.78;5088226;27;100655;-76
2023/11/27 02:39:06;;;;;;;30.40;16.27;;;;;;;6.20;65.48;100629.28;5085255;27;99260;-76
2023/11/27 02:41:35;;;;;;;25.80;16.95;;;;;;;6.16;65.98;100625.00;5088598;27;96768;-76
2023/11/27 02:44:02;;;;;;;36.78;19.52;;;;;;;6.16;66.16;100630.25;5085940;27;96729;-76
2023/11/27 02:46:28;;;;;;;32.83;20.30;;;;;;;5.80;66.87;100634.38;5085664;27;102413;-77
2023/11/27 02:48:54;;;;;;;32.90;21.00;;;;;;;5.87;67.22;100631.66;5081940;27;98762;-76
2023/11/27 02:51:21;;;;;;;33.00;19.63;;;;;;;6.25;65.68;100627.44;5091473;27;97037;-76
2023/11/27 02:53:48;;;;;;;34.72;20.50;;;;;;;6.09;66.32;100615.53;5091889;27;96813;-76
2023/11/27 02:56:14;;;;;;;26.17;18.02;;;;;;;6.00;65.80;100611.31;5090593;27;101778;-76
2023/11/27 02:58:42;;;;;;;25.52;14.10;;;;;;;6.10;65.73;100615.50;5092030;27;98856;-75
2023/11/27 03:01:08;;;;;;;23.33;13.60;;;;;;;6.22;65.67;100607.38;5086272;27;98928;-76
2023/11/27 03:03:35;;;;;;;23.30;13.73;;;;;;;6.13;65.36;100617.19;5091873;27;96914;-76
2023/11/27 03:06:01;;;;;;;29.30;15.35;;;;;;;6.43;65.23;100610.47;5088807;27;98857;-75
2023/11/27 03:08:28;;;;;;;33.47;14.18;;;;;;;6.32;65.10;100595.78;5089379;27;99786;-76
2023/11/27 03:10:54;;;;;;;20.08;11.25;;;;;;;6.20;65.52;100603.91;5089779;27;97745;-76
2023/11/27 03:13:21;;;;;;;19.95;11.23;;;;;;;5.91;66.41;100593.97;5087534;27;96952;-76
2023/11/27 03:15:48;;;;;;;20.33;10.20;;;;;;;5.92;66.62;100595.72;5088591;27;97939;-75
2023/11/27 03:18:15;;;;;;;16.55;9.35;;;;;;;6.20;65.75;100595.19;5080307;27;99206;-75
2023/11/27 03:20:41;;;;;;;18.48;10.32;;;;;;;5.89;66.64;100595.78;5085406;27;98526;-75
2023/11/27 03:23:07;;;;;;;20.25;10.38;;;;;;;5.93;66.80;100600.06;5085534;27;96849;-75
2023/11/27 03:25:34;;;;;;;21.60;10.35;;;;;;;5.94;67.02;100588.69;5091573;27;98276;-76
2023/11/27 03:28:00;;;;;;;17.50;8.98;;;;;;;5.92;66.78;100587.84;5091532;27;99131;-76
2023/11/27 03:30:26;;;;;;;15.77;8.23;;;;;;;5.79;66.71;100591.56;5083511;27;96862;-76
2023/11/27 03:32:54;;;;;;;12.68;7.57;;;;;;;5.59;67.49;100588.41;5081331;27;96866;-76
2023/11/27 03:35:20;;;;;;;11.60;7.68;;;;;;;5.75;67.10;100582.03;5090064;27;99300;-76
2023/11/27 03:37:47;;;;;;;12.32;7.15;;;;;;;5.76;66.78;100585.50;5091229;27;98585;-76
2023/11/27 03:40:13;;;;;;;14.13;7.60;;;;;;;5.56;67.38;100578.88;5088141;27;96735;-76
2023/11/27 03:42:40;;;;;;;17.08;8.05;;;;;;;5.79;67.28;100586.31;5094239;27;96877;-76
2023/11/27 03:45:08;;;;;;;16.48;7.85;;;;;;;5.91;66.63;100578.22;5091048;27;98665;-77
2023/11/27 03:47:37;;;;;;;15.60;7.88;;;;;;;6.18;65.80;100583.84;5087031;27;100188;-77
2023/11/27 03:50:06;;;;;;;13.55;7.97;;;;;;;6.09;65.30;100578.78;5084132;27;96703;-77
2023/11/27 03:52:33;;;;;;;22.80;8.25;;;;;;;6.11;65.67;100576.97;5086879;27;96896;-78
2023/11/27 03:54:59;;;;;;;18.15;7.75;;;;;;;6.35;65.13;100577.38;5083718;27;99019;-77
2023/11/27 03:57:27;;;;;;;15.40;7.07;;;;;;;6.38;64.10;100572.03;5084802;27;100010;-76
2023/11/27 03:59:53;;;;;;;15.43;7.45;;;;;;;6.46;63.80;100576.25;5091327;27;96787;-77
2023/11/27 04:02:20;;;;;;;14.73;7.70;;;;;;;6.37;64.34;100572.06;5086960;27;97123;-78
2023/11/27 04:04:46;;;;;;;15.38;7.80;;;;;;;6.35;64.25;100577.38;5086160;27;99085;-77
2023/11/27 04:07:14;;;;;;;13.18;7.18;;;;;;;6.26;64.92;100569.69;5083630;27;99295;-77
2023/11/27 04:09:40;;;;;;;12.80;6.85;;;;;;;6.05;65.73;100571.84;5081577;27;97343;-77
2023/11/27 04:12:07;;;;;;;15.05;7.28;;;;;;;5.94;65.75;100574.69;5084053;27;98393;-77
2023/11/27 04:14:34;;;;;;;11.57;6.85;;;;;;;6.15;65.18;100562.94;5082067;27;99761;-77
2023/11/27 04:17:03;;;;;;;13.13;6.68;;;;;;;6.33;65.05;100557.28;5077675;27;99847;-77
2023/11/27 04:19:30;;;;;;;13.00;7.28;;;;;;;6.15;65.54;100560.31;5091201;27;96735;-76
2023/11/27 04:21:56;;;;;;;17.05;7.45;;;;;;;5.96;65.99;100570.31;5090115;27;97133;-76
2023/11/27 04:24:24;;;;;;;15.23;7.72;;;;;;;6.22;65.85;100567.16;5087960;27;99070;-77
2023/11/27 04:26:50;;;;;;;15.35;6.82;;;;;;;6.03;66.52;100569.28;5083046;27;101063;-77
2023/11/27 04:29:18;;;;;;;14.65;7.93;;;;;;;6.10;66.40;100572.66;5081640;27;97092;-76
2023/11/27 04:31:44;;;;;;;15.45;6.97;;;;;;;5.84;67.95;100558.22;5087209;27;96886;-77
2023/11/27 04:34:10;;;;;;;12.77;7.93;;;;;;;5.67;68.82;100560.31;5084494;27;98879;-76
2023/11/27 04:36:37;;;;;;;11.48;7.18;;;;;;;5.76;68.31;100561.91;5093117;27;98909;-76
2023/11/27 04:39:04;;;;;;;14.65;7.40;;;;;;;6.08;67.06;100550.81;5085247;27;96826;-77
2023/11/27 04:41:31;;;;;;;11.25;6.47;;;;;;;6.15;66.86;100550.69;5087080;27;97048;-77
2023/11/27 04:43:58;;;;;;;14.93;7.35;;;;;;;6.06;66.83;100542.13;5085009;27;99285;-77
2023/11/27 04:46:24;;;;;;;18.80;7.63;;;;;;;6.21;66.09;100539.19;5080547;27;99366;-77
2023/11/27 04:48:50;;;;;;;17.35;7.18;;;;;;;6.19;66.23;100530.47;5087043;27;96662;-77
2023/11/27 04:51:17;;;;;;;11.63;6.93;;;;;;;6.17;65.85;100534.91;5081149;27;97212;-77
2023/11/27 04:53:43;;;;;;;17.38;7.68;;;;;;;6.07;67.31;100528.13;5084448;27;99133;-76
2023/11/27 04:56:10;;;;;;;17.48;8.07;;;;;;;5.87;66.91;100537.25;5081539;27;99042;-77
2023/11/27 04:58:38;;;;;;;17.50;8.52;;;;;;;6.02;66.88;100530.84;5085875;27;98756;-76
2023/11/27 05:01:05;;;;;;;17.52;7.93;;;;;;;5.87;67.22;100538.97;5086838;27;97186;-77
2023/11/27 05:03:31;;;;;;;14.27;7.63;;;;;;;6.00;67.53;100536.09;5088151;27;99689;-77
2023/11/27 05:05:58;;;;;;;13.45;7.75;;;;;;;5.91;67.19;100538.03;5084296;27;101615;-77
2023/11/27 05:08:25;;;;;;;14.68;7.75;;;;;;;6.08;67.05;100530.72;5089221;27;96743;-77
2023/11/27 05:10:51;;;;;;;14.43;7.43;;;;;;;5.96;66.87;100531.81;5080147;27;96724;-77
2023/11/27 05:13:18;;;;;;;17.60;7.65;;;;;;;5.95;66.27;100529.22;5079440;27;98763;-77
2023/11/27 05:15:45;;;;;;;13.13;7.43;;;;;;;6.38;65.73;100531.81;5089588;27;98591;-77
2023/11/27 05:18:12;;;;;;;14.07;7.63;;;;;;;6.22;65.46;100530.44;5088386;27;96785;-77
2023/11/27 05:20:39;;;;;;;14.80;7.18;;;;;;;6.19;66.00;100527.84;5077435;27;96851;-77
2023/11/27 05:23:05;;;;;;;12.95;7.53;;;;;;;6.08;66.63;100529.84;5082646;27;99004;-77
2023/11/27 05:25:32;;;;;;;15.95;7.15;;;;;;;5.93;67.19;100524.00;5075104;27;97675;-76
2023/11/27 05:27:58;;;;;;;15.80;7.60;;;;;;;5.97;68.09;100520.41;5079983;27;98800;-75
2023/11/27 05:30:25;;;;;;;14.63;7.28;;;;;;;5.89;68.34;100518.88;5083283;27;96889;-76
2023/11/27 05:32:53;;;;;;;19.90;7.97;;;;;;;5.78;68.39;100524.25;5086585;27;99684;-75
2023/11/27 05:35:19;;;;;;;14.55;7.45;;;;;;;6.10;67.70;100512.31;5082511;27;98842;-77
2023/11/27 05:37:46;;;;;;;13.27;7.15;;;;;;;6.00;66.76;100509.88;5080375;27;97022;-77
2023/11/27 05:40:12;;;;;;;15.02;8.07;;;;;;;6.05;66.68;100508.91;5081099;27;99319;-77
2023/11/27 05:42:40;;;;;;;19.42;8.18;;;;;;;6.30;65.81;100508.34;5072206;27;98901;-78
2023/11/27 05:45:10;;;;;;;13.50;6.95;;;;;;;6.12;65.29;100503.50;5085722;27;101642;-78
2023/11/27 05:47:37;;;;;;;11.57;6.78;;;;;;;5.92;65.99;100498.66;5081443;27;96794;-80
2023/11/27 05:50:06;;;;;;;11.20;6.80;;;;;;;6.06;66.25;100502.78;5075995;27;98419;-79
2023/11/27 05:52:33;;;;;;;12.65;6.55;;;;;;;5.99;66.33;100496.78;5081853;27;96804;-79
2023/11/27 05:55:00;;;;;;;19.23;8.05;;;;;;;6.12;66.17;100497.38;5088409;27;99599;-76
2023/11/27 05:57:26;;;;;;;13.30;6.53;;;;;;;6.14;65.93;100493.84;5087415;27;96829;-76
2023/11/27 05:59:53;;;;;;;14.70;7.70;;;;;;;6.26;65.36;100493.59;5083739;27;97566;-77
2023/11/27 06:02:20;;;;;;;12.73;6.75;;;;;;;6.17;64.92;100493.75;5082170;27;98898;-76
2023/11/27 06:04:46;;;;;;;12.10;6.53;;;;;;;6.04;65.79;100492.31;5091304;27;97845;-76
2023/11/27 06:07:14;;;;;;;13.70;6.80;;;;;;;6.19;65.68;100481.50;5081344;27;96843;-76
2023/11/27 06:09:40;;;;;;;11.50;6.40;;;;;;;6.20;64.89;100491.09;5086630;27;96801;-76
2023/11/27 06:12:10;;;;;;;18.52;6.63;;;;;;;6.21;64.59;100490.19;5078954;27;101384;-76
2023/11/27 06:14:36;;;;;;;16.90;6.85;;;;;;;6.18;65.52;100492.00;5078555;27;99445;-78
2023/11/27 06:17:03;;;;;;;20.23;7.10;;;;;;;6.19;64.95;100489.34;5084669;27;96857;-77
2023/11/27 06:19:29;;;;;;;14.52;6.32;;;;;;;6.26;64.82;100495.34;5089044;27;97191;-77
2023/11/27 06:21:55;;;;;;;11.00;6.38;;;;;;;6.48;64.10;100493.97;5088496;27;99413;-77
2023/11/27 06:24:23;;;;;;;11.43;7.18;;;;;;;6.59;64.04;100491.09;5089621;27;98823;-77
2023/11/27 06:26:50;;;;;;;15.52;6.85;;;;;;;6.49;63.69;100498.34;5081494;27;96754;-77
2023/11/27 06:29:17;;;;;;;13.00;6.88;;;;;;;6.76;62.33;100495.03;5083004;27;96814;-78
2023/11/27 06:31:43;;;;;;;13.02;6.72;;;;;;;6.89;61.07;100489.53;5085227;27;99091;-77
2023/11/27 06:34:09;;;;;;;15.98;7.03;;;;;;;6.77;61.55;100491.50;5083253;27;98772;-77
2023/11/27 06:36:36;;;;;;;15.27;7.45;;;;;;;6.75;61.94;100480.22;5088833;27;97141;-78
2023/11/27 06:39:03;;;;;;;13.82;7.70;;;;;;;7.02;61.07;100480.44;5095487;27;96767;-78
2023/11/27 06:41:33;;;;;;;13.77;7.45;;;;;;;6.76;61.11;100478.44;5093548;27;100217;-77
2023/11/27 06:44:00;;;;;;;14.43;7.57;;;;;;;6.43;62.77;100479.25;5084572;27;98852;-77
2023/11/27 06:46:27;;;;;;;14.93;6.93;;;;;;;6.49;62.61;100481.72;5090715;27;96921;-77
2023/11/27 06:48:54;;;;;;;11.95;6.85;;;;;;;6.71;62.12;100485.56;5088575;27;96788;-77
2023/11/27 06:51:20;;;;;;;13.10;6.20;;;;;;;6.82;61.87;100473.03;5084966;27;101753;-76
2023/11/27 06:53:47;;;;;;;13.32;6.78;;;;;;;6.88;61.45;100477.28;5094606;27;98911;-77
2023/11/27 06:56:13;;;;;;;14.73;6.90;;;;;;;6.50;62.44;100465.91;5085368;27;97033;-77
2023/11/27 06:58:41;;;;;;;11.60;6.50;;;;;;;6.64;62.11;100471.69;5084207;27;96948;-77
2023/11/27 07:01:11;;;;;;;11.45;5.50;;;;;;;6.29;62.98;100469.91;5088076;27;97643;-77
2023/11/27 07:03:37;;;;;;;15.02;5.80;;;;;;;6.61;62.91;100476.19;5085354;27;99072;-76
2023/11/27 07:06:07;;;;;;;7.95;5.20;;;;;;;6.89;61.75;100471.13;5081555;27;97631;-78
2023/11/27 07:08:34;;;;;;;79.07;9.27;;;;;;;6.86;61.30;100473.81;5081427;27;99079;-79
2023/11/27 07:11:02;;;;;;;14.63;5.35;;;;;;;6.96;61.02;100472.69;5076273;27;98806;-79
2023/11/27 07:13:28;;;;;;;12.82;5.45;;;;;;;6.83;61.39;100479.16;5081813;27;97645;-79
2023/11/27 07:15:56;;;;;;;18.15;5.43;;;;;;;6.67;61.43;100469.03;5083612;27;96816;-78
2023/11/27 07:18:23;;;;;;;18.98;6.28;;;;;;;6.53;61.75;100476.34;5082482;27;96887;-78
2023/11/27 07:20:49;;;;;;;12.80;5.50;;;;;;;6.72;61.29;100477.63;5079608;27;102233;-78
2023/11/27 07:23:16;;;;;;;9.32;5.68;;;;;;;6.94;60.80;100480.63;5082689;27;99276;-78
2023/11/27 07:25:42;;;;;;;10.57;5.18;;;;;;;6.78;61.44;100471.38;5090582;27;96636;-80
2023/11/27 07:28:09;;;;;;;10.25;5.53;;;;;;;6.90;61.11;100471.06;5085490;27;96746;-80
2023/11/27 07:30:37;;;;;;;10.52;5.60;;;;;;;6.97;61.09;100472.66;5079455;27;99678;-79
2023/11/27 07:33:05;;;;;;;10.18;5.38;;;;;;;6.99;60.97;100462.09;5085639;27;98829;-80
2023/11/27 07:35:32;;;;;;;11.50;5.70;;;;;;;6.99;60.94;100459.47;5086257;27;96732;-77
2023/11/27 07:37:58;;;;;;;11.40;5.65;;;;;;;7.18;60.46;100468.63;5090198;27;96925;-75
2023/11/27 07:40:27;;;;;;;12.88;5.43;;;;;;;7.58;59.07;100461.38;5084940;27;99239;-75
2023/11/27 07:42:54;;;;;;;13.77;5.45;;;;;;;7.30;58.98;100455.16;5094135;27;99164;-75
2023/11/27 07:45:21;;;;;;;8.98;5.10;;;;;;;7.13;59.67;100460.00;5085485;27;96787;-75
2023/11/27 07:47:47;;;;;;;11.60;5.05;;;;;;;6.87;60.21;100465.03;5087772;27;96989;-77
2023/11/27 07:50:15;;;;;;;10.38;5.38;;;;;;;6.77;60.77;100465.25;5085270;27;98390;-76
2023/11/27 07:52:42;;;;;;;13.50;5.40;;;;;;;6.96;60.67;100470.06;5090562;27;98760;-77
2023/11/27 07:55:12;;;;;;;14.55;5.95;;;;;;;7.06;60.17;100458.41;5090317;27;96793;-77
2023/11/27 07:57:39;;;;;;;10.02;5.95;;;;;;;6.91;60.02;100459.66;5082722;27;96777;-77
2023/11/27 08:00:11;;;;;;;14.60;5.97;;;;;;;7.05;60.80;100456.69;5087165;27;99157;-77
2023/11/27 08:02:38;;;;;;;12.73;6.00;;;;;;;6.91;60.70;100451.78;5091381;27;99215;-77
2023/11/27 08:05:06;;;;;;;17.38;5.93;;;;;;;6.84;60.81;100452.84;5082094;27;99141;-75
2023/11/27 08:07:37;;;;;;;12.90;6.35;;;;;;;6.96;60.78;100455.16;5091645;27;96854;-76
2023/11/27 08:10:04;;;;;;;11.50;5.93;;;;;;;7.00;60.73;100453.31;5093844;27;99259;-76
2023/11/27 08:12:30;;;;;;;14.27;5.88;;;;;;;6.84;60.96;100455.47;5087510;27;99368;-76
2023/11/27 08:14:57;;;;;;;8.93;5.85;;;;;;;6.99;60.76;100457.72;5091042;27;96885;-76
2023/11/27 08:17:26;;;;;;;11.63;5.82;;;;;;;6.84;60.95;100451.97;5092180;27;96734;-77
2023/11/27 08:19:52;;;;;;;14.52;6.82;;;;;;;6.97;61.15;100456.88;5083385;27;98753;-77
2023/11/27 08:22:19;;;;;;;15.55;6.60;;;;;;;6.99;60.96;100455.09;5081411;27;98810;-76
2023/11/27 08:24:47;;;;;;;10.25;5.45;;;;;;;7.30;59.91;100451.66;5079938;27;97352;-77
2023/11/27 08:27:14;;;;;;;11.38;5.10;;;;;;;7.09;60.73;100450.44;5080471;27;96833;-77
2023/11/27 08:29:40;;;;;;;13.55;5.47;;;;;;;7.10;61.54;100445.16;5090707;27;99318;-77
2023/11/27 08:32:09;;;;;;;13.25;5.60;;;;;;;6.72;62.75;100447.88;5081240;27;99663;-77
2023/11/27 08:34:35;;;;;;;13.90;6.18;;;;;;;6.77;63.09;100444.25;5090233;27;97163;-77
2023/11/27 08:37:05;;;;;;;13.38;6.22;;;;;;;7.09;62.83;100446.06;5088386;27;96746;-76
2023/11/27 08:39:31;;;;;;;10.23;6.03;;;;;;;7.16;61.40;100442.38;5091322;27;100760;-77
2023/11/27 08:41:59;;;;;;;17.20;5.85;;;;;;;7.17;61.94;100444.09;5090761;27;100712;-78
2023/11/27 08:44:25;;;;;;;14.30;5.53;;;;;;;6.66;63.45;100446.28;5087610;27;96852;-77
2023/11/27 08:46:51;;;;;;;23.15;5.45;;;;;;;7.00;63.05;100442.81;5089525;27;97049;-76
2023/11/27 08:49:18;;;;;;;8.20;5.05;;;;;;;7.07;63.25;100436.50;5091969;27;99217;-77
2023/11/27 08:51:45;;;;;;;12.32;5.05;;;;;;;7.13;63.25;100438.97;5084836;27;101748;-76
2023/11/27 08:54:12;;;;;;;12.98;5.07;;;;;;;7.33;62.47;100428.78;5091754;27;98868;-77
2023/11/27 08:56:43;;;;;;;7.88;5.10;;;;;;;7.33;61.60;100431.41;5087456;27;98986;-77
2023/11/27 08:59:12;;;;;;;13.30;5.78;;;;;;;7.27;62.41;100428.09;5089258;27;100614;-75
2023/11/27 09:01:38;;;;;;;12.82;5.63;;;;;;;7.10;63.10;100421.50;5083622;27;98837;-74
2023/11/27 09:04:05;;;;;;;13.75;5.78;;;;;;;6.97;64.04;100421.88;5088980;27;97910;-76
2023/11/27 09:06:31;;;;;;;13.73;5.70;;;;;;;7.04;63.89;100410.31;5087792;27;97233;-76
2023/11/27 09:08:59;;;;;;;11.80;6.22;;;;;;;7.39;63.56;100407.59;5087606;27;99607;-77
2023/11/27 09:11:26;;;;;;;13.25;6.63;;;;;;;7.46;63.34;100401.25;5085474;27;99114;-75
2023/11/27 09:13:52;;;;;;;13.05;7.32;;;;;;;7.34;62.83;100401.59;5087427;27;97389;-75
2023/11/27 09:16:20;;;;;;;13.75;6.50;;;;;;;7.19;63.64;100391.50;5089604;27;97118;-76
2023/11/27 09:18:48;;;;;;;15.15;7.03;;;;;;;7.82;62.79;100393.19;5087691;27;97603;-76
2023/11/27 09:21:15;;;;;;;10.20;6.10;;;;;;;7.89;61.49;100395.59;5086974;27;99166;-77
2023/11/27 09:23:42;;;;;;;10.10;5.97;;;;;;;7.89;60.97;100394.75;5083154;27;96816;-75
2023/11/27 09:26:08;;;;;;;16.33;6.65;;;;;;;7.87;60.38;100400.06;5082675;27;96903;-75
2023/11/27 09:28:34;;;;;;;22.80;6.45;;;;;;;7.80;61.46;100397.66;5085843;27;99297;-75
2023/11/27 09:31:01;;;;;;;14.23;6.32;;;;;;;8.11;59.99;100401.09;5082712;27;99424;-76
2023/11/27 09:33:29;;;;;;;9.88;6.28;;;;;;;7.62;61.04;100393.78;5082650;27;97146;-75
2023/11/27 09:35:57;;;;;;;11.95;6.65;;;;;;;7.93;59.51;100394.63;5087731;27;96890;-74
2023/11/27 09:38:25;;;;;;;10.90;6.40;;;;;;;7.73;60.14;100396.13;5086918;27;99333;-75
2023/11/27 09:40:52;;;;;;;12.27;5.70;;;;;;;7.42;60.63;100389.09;5077914;27;98897;-76
2023/11/27 09:43:19;;;;;;;12.23;6.13;;;;;;;7.65;61.05;100382.31;5081055;27;100051;-70
2023/11/27 09:45:45;;;;;;;9.45;5.63;;;;;;;7.55;61.18;100387.84;5082780;27;97441;-69
2023/11/27 09:48:12;;;;;;;13.75;5.93;;;;;;;7.58;60.86;100387.75;5085224;27;98842;-67
2023/11/27 09:50:44;;;;;;;17.60;6.38;;;;;;;7.31;61.85;100372.78;5082743;27;101631;-73
2023/11/27 09:53:13;;;;;;;19.80;6.95;;;;;;;7.42;61.63;100369.81;5086648;27;97042;-74
2023/11/27 09:55:41;;;;;;;13.63;6.85;;;;;;;7.58;61.59;100365.88;5087064;27;99439;-75
2023/11/27 09:58:09;;;;;;;15.25;6.93;;;;;;;7.61;60.91;100353.47;5087452;27;100064;-74
2023/11/27 10:00:36;;;;;;;15.20;7.30;;;;;;;7.88;60.34;100359.69;5089000;27;98829;-74
2023/11/27 10:03:04;;;;;;;14.15;7.10;;;;;;;7.78;60.87;100347.72;5086723;27;96805;-73
2023/11/27 10:05:31;;;;;;;13.90;7.32;;;;;;;7.81;60.48;100346.78;5084508;27;98431;-76
2023/11/27 10:07:59;;;;;;;14.27;8.00;;;;;;;8.24;59.61;100352.41;5077764;27;100641;-77
2023/11/27 10:10:26;;;;;;;12.93;7.85;;;;;;;8.05;59.14;100345.16;5080287;27;101205;-77
2023/11/27 10:12:57;;;;;;;17.08;8.60;;;;;;;8.19;58.63;100346.44;5078646;27;98580;-76
2023/11/27 10:15:26;;;;;;;16.83;7.97;;;;;;;8.24;59.41;100339.25;5079678;27;97171;-76
2023/11/27 10:17:53;;;;;;;13.43;7.50;;;;;;;8.06;59.04;100337.22;5083528;27;98775;-76
2023/11/27 10:20:22;;;;;;;19.60;8.82;;;;;;;7.87;60.23;100330.81;5083545;27;99099;-76
2023/11/27 10:22:48;;;;;;;17.05;8.77;;;;;;;8.16;59.51;100327.25;5080635;27;96827;-76
2023/11/27 10:25:16;;;;;;;20.33;8.07;;;;;;;8.22;59.43;100322.63;5079841;27;97215;-76
2023/11/27 10:27:43;;;;;;;19.55;8.35;;;;;;;8.17;59.45;100318.44;5074096;27;102015;-76
2023/11/27 10:30:20;;;;;;;18.92;9.30;;;;;;;8.05;59.86;100314.44;5079957;27;99341;-76
2023/11/27 10:32:47;;;;;;;27.27;9.10;;;;;;;8.24;59.38;100305.03;5078987;27;97129;-76
2023/11/27 10:35:14;;;;;;;19.52;8.90;;;;;;;8.05;60.62;100303.91;5082894;27;98684;-75
2023/11/27 10:37:42;;;;;;;24.10;10.57;;;;;;;7.82;61.77;100301.13;5080583;27;98886;-76
2023/11/27 10:40:13;;;;;;;24.20;10.80;;;;;;;8.43;59.74;100309.72;5077584;27;102004;-76
2023/11/27 10:42:44;;;;;;;25.50;12.35;;;;;;;8.40;59.24;100301.00;5081291;27;99019;-76
2023/11/27 10:45:15;;;;;;;19.92;10.88;;;;;;;8.65;59.32;100297.56;5086980;27;97377;-76
2023/11/27 10:47:44;;;;;;;27.65;12.60;;;;;;;8.32;60.58;100289.03;5078906;27;102212;-75
2023/11/27 10:50:13;;;;;;;20.48;10.40;;;;;;;8.53;59.95;100282.19;5082781;27;99262;-75
2023/11/27 10:52:42;;;;;;;33.95;12.73;;;;;;;8.53;59.63;100284.81;5078329;27;98362;-75
2023/11/27 10:55:11;;;;;;;25.05;11.57;;;;;;;8.45;60.22;100284.19;5077060;27;97269;-76
2023/11/27 10:57:38;;;;;;;27.88;13.73;;;;;;;8.40;60.50;100285.19;5080923;27;99001;-77
2023/11/27 11:00:08;;;;;;;27.10;13.02;;;;;;;8.25;60.99;100277.81;5073969;27;98710;-76
2023/11/27 11:02:36;;;;;;;25.05;12.20;;;;;;;8.49;60.23;100260.34;5077497;27;97058;-76
2023/11/27 11:05:05;;;;;;;23.33;12.73;;;;;;;8.54;60.14;100255.75;5072731;27;98307;-76
2023/11/27 11:07:36;;;;;;;22.88;12.10;;;;;;;8.14;61.05;100256.22;5084636;27;99494;-77
2023/11/27 11:10:05;;;;;;;23.67;11.93;;;;;;;8.13;61.74;100251.03;5087185;27;98795;-76
2023/11/27 11:12:32;;;;;;;25.45;11.80;;;;;;;8.07;61.62;100260.00;5087291;27;97135;-76
2023/11/27 11:14:59;;;;;;;26.92;12.52;;;;;;;8.36;60.96;100252.00;5087186;27;96978;-76
2023/11/27 11:17:36;;;;;;;24.77;12.00;;;;;;;8.29;62.32;100252.22;5082465;27;99042;-75
2023/11/27 11:20:14;;;;;;;26.00;12.25;;;;;;;8.69;60.88;100243.84;5082003;27;99207;-76
2023/11/27 11:22:52;;;;;;;28.30;11.75;;;;;;;8.44;60.67;100240.34;5083640;27;97465;-76